createdAt,value
2018-09-07T00:00:06.923Z,1005.9
2018-09-07T00:01:15.565Z,1005.93
2018-09-07T00:02:24.218Z,1005.93
2018-09-07T00:03:32.854Z,1005.95
2018-09-07T00:04:41.830Z,1005.94
2018-09-07T00:05:50.412Z,1005.92
2018-09-07T00:06:59.068Z,1005.89
2018-09-07T00:08:07.702Z,1005.91
2018-09-07T00:09:16.347Z,1005.91
2018-09-07T00:10:25.262Z,1005.95
2018-09-07T00:11:33.921Z,1005.94
2018-09-07T00:12:42.560Z,1005.94
2018-09-07T00:13:51.203Z,1005.93
2018-09-07T00:14:59.845Z,1005.98
2018-09-07T00:16:08.486Z,1005.96
2018-09-07T00:17:17.142Z,1005.94
2018-09-07T00:18:25.782Z,1005.94
2018-09-07T00:19:34.433Z,1005.93
2018-09-07T00:20:43.070Z,1005.91
2018-09-07T00:21:51.988Z,1005.94
2018-09-07T00:23:00.634Z,1005.89
2018-09-07T00:24:09.284Z,1005.87
2018-09-07T00:25:18.178Z,1005.85
2018-09-07T00:26:26.833Z,1005.85
2018-09-07T00:27:35.475Z,1005.84
2018-09-07T00:28:44.123Z,1005.82
2018-09-07T00:29:53.022Z,1005.86
2018-09-07T00:31:01.939Z,1005.86
2018-09-07T00:32:10.589Z,1005.87
2018-09-07T00:33:19.238Z,1005.84
2018-09-07T00:34:27.887Z,1005.86
2018-09-07T00:35:36.524Z,1005.89
2018-09-07T00:36:45.176Z,1005.89
2018-09-07T00:37:53.817Z,1005.88
2018-09-07T00:39:02.472Z,1005.9
2018-09-07T00:40:11.115Z,1005.93
2018-09-07T00:41:19.764Z,1005.96
2018-09-07T00:42:28.404Z,1005.97
2018-09-07T00:43:37.061Z,1005.96
2018-09-07T00:44:45.697Z,1006.02
2018-09-07T00:45:54.346Z,1005.98
2018-09-07T00:47:02.988Z,1005.98
2018-09-07T00:48:11.908Z,1005.98
2018-09-07T00:49:20.551Z,1005.92
2018-09-07T00:50:29.190Z,1005.92
2018-09-07T00:51:37.833Z,1005.92
2018-09-07T00:52:46.476Z,1005.97
2018-09-07T00:53:55.129Z,1005.93
2018-09-07T00:55:03.771Z,1005.95
2018-09-07T00:56:12.730Z,1005.91
2018-09-07T00:57:21.368Z,1005.93
2018-09-07T00:58:30.025Z,1005.94
2018-09-07T00:59:38.665Z,1005.93
2018-09-07T01:00:47.316Z,1005.95
2018-09-07T01:01:55.954Z,1005.95
2018-09-07T01:03:04.874Z,1005.91
2018-09-07T01:04:13.517Z,1005.94
2018-09-07T01:05:22.429Z,1005.95
2018-09-07T01:06:31.062Z,1005.94
2018-09-07T01:07:39.969Z,1005.94
2018-09-07T01:08:48.622Z,1005.97
2018-09-07T01:09:57.267Z,1005.96
2018-09-07T01:11:05.916Z,1005.99
2018-09-07T01:12:14.550Z,1005.98
2018-09-07T01:13:23.200Z,1005.98
2018-09-07T01:14:31.841Z,1006.01
2018-09-07T01:15:40.494Z,1006.04
2018-09-07T01:16:49.139Z,1006.04
2018-09-07T01:17:57.791Z,1006.05
2018-09-07T01:19:06.433Z,1006.07
2018-09-07T01:20:15.349Z,1006.06
2018-09-07T01:21:24.257Z,1006.08
2018-09-07T01:22:32.906Z,1006.07
2018-09-07T01:23:41.811Z,1006.1
2018-09-07T01:24:50.466Z,1006.13
2018-09-07T01:25:59.111Z,1006.12
2018-09-07T01:27:07.751Z,1006.12
2018-09-07T01:28:16.396Z,1006.12
2018-09-07T01:29:25.040Z,1006.08
2018-09-07T01:30:33.963Z,1006.11
2018-09-07T01:31:42.605Z,1006.05
2018-09-07T01:32:51.252Z,1006.12
2018-09-07T01:33:59.891Z,1006.13
2018-09-07T01:35:08.542Z,1006.14
2018-09-07T01:36:17.185Z,1006.14
2018-09-07T01:37:25.843Z,1006.11
2018-09-07T01:38:34.484Z,1006.14
2018-09-07T01:39:43.134Z,1006.13
2018-09-07T01:40:51.779Z,1006.11
2018-09-07T01:42:00.427Z,1006.09
2018-09-07T01:43:09.063Z,1006.06
2018-09-07T01:44:17.976Z,1006.06
2018-09-07T01:45:26.892Z,1006.01
2018-09-07T01:46:35.543Z,1005.99
2018-09-07T01:47:44.189Z,1006.02
2018-09-07T01:48:52.826Z,1005.98
2018-09-07T01:50:01.477Z,1006
2018-09-07T01:51:10.377Z,1005.97
2018-09-07T01:52:19.032Z,1005.94
2018-09-07T01:53:27.669Z,1005.94
2018-09-07T01:54:36.314Z,1005.96
2018-09-07T01:55:44.959Z,1005.96
2018-09-07T01:56:53.608Z,1005.96
2018-09-07T01:58:02.246Z,1006.01
2018-09-07T01:59:11.157Z,1006.03
2018-09-07T02:00:19.801Z,1006.01
2018-09-07T02:01:28.715Z,1005.98
2018-09-07T02:02:37.357Z,1005.99
2018-09-07T02:03:46.010Z,1006
2018-09-07T02:04:54.644Z,1006.01
2018-09-07T02:06:03.289Z,1005.96
2018-09-07T02:07:12.200Z,1005.98
2018-09-07T02:08:20.846Z,1005.97
2018-09-07T02:09:29.757Z,1005.96
2018-09-07T02:10:38.665Z,1005.96
2018-09-07T02:11:47.574Z,1005.91
2018-09-07T02:12:56.218Z,1005.93
2018-09-07T02:14:04.864Z,1005.92
2018-09-07T02:15:13.504Z,1005.94
2018-09-07T02:16:22.154Z,1005.97
2018-09-07T02:17:31.326Z,1005.93
2018-09-07T02:18:40.006Z,1005.91
2018-09-07T02:19:49.381Z,1005.9
2018-09-07T02:20:58.638Z,1005.95
2018-09-07T02:22:07.772Z,1005.98
2018-09-07T02:23:16.678Z,1005.99
2018-09-07T02:24:25.325Z,1005.98
2018-09-07T02:25:34.376Z,1005.95
2018-09-07T02:26:43.018Z,1005.95
2018-09-07T02:27:51.662Z,1005.93
2018-09-07T02:29:00.310Z,1005.91
2018-09-07T02:30:09.002Z,1005.91
2018-09-07T02:31:17.908Z,1005.88
2018-09-07T02:32:26.817Z,1005.86
2018-09-07T02:33:35.471Z,1005.83
2018-09-07T02:34:44.111Z,1005.89
2018-09-07T02:35:53.019Z,1005.89
2018-09-07T02:37:01.932Z,1005.9
2018-09-07T02:38:10.583Z,1005.92
2018-09-07T02:39:19.226Z,1005.93
2018-09-07T02:40:27.870Z,1005.92
2018-09-07T02:41:36.515Z,1005.89
2018-09-07T02:42:45.159Z,1005.89
2018-09-07T02:43:53.807Z,1005.91
2018-09-07T02:45:02.449Z,1005.9
2018-09-07T02:46:11.094Z,1005.86
2018-09-07T02:47:19.733Z,1005.85
2018-09-07T02:48:28.649Z,1005.86
2018-09-07T02:49:37.294Z,1005.85
2018-09-07T02:50:45.937Z,1005.82
2018-09-07T02:51:54.595Z,1005.83
2018-09-07T02:53:03.491Z,1005.84
2018-09-07T02:54:12.140Z,1005.82
2018-09-07T02:55:20.787Z,1005.85
2018-09-07T02:56:29.706Z,1005.8
2018-09-07T02:57:38.346Z,1005.82
2018-09-07T02:58:46.991Z,1005.83
2018-09-07T02:59:55.633Z,1005.87
2018-09-07T03:01:04.536Z,1005.85
2018-09-07T03:02:13.193Z,1005.87
2018-09-07T03:03:21.839Z,1005.91
2018-09-07T03:04:30.751Z,1005.91
2018-09-07T03:05:39.391Z,1005.9
2018-09-07T03:06:48.043Z,1005.91
2018-09-07T03:07:56.684Z,1005.89
2018-09-07T03:09:05.331Z,1005.88
2018-09-07T03:10:14.239Z,1005.87
2018-09-07T03:11:23.160Z,1005.82
2018-09-07T03:12:31.805Z,1005.85
2018-09-07T03:13:40.453Z,1005.76
2018-09-07T03:14:49.093Z,1005.79
2018-09-07T03:15:57.741Z,1005.84
2018-09-07T03:17:06.386Z,1005.79
2018-09-07T03:18:15.035Z,1005.73
2018-09-07T03:19:23.683Z,1005.72
2018-09-07T03:20:32.581Z,1005.75
2018-09-07T03:21:41.231Z,1005.71
2018-09-07T03:22:49.876Z,1005.74
2018-09-07T03:23:58.526Z,1005.76
2018-09-07T03:25:07.163Z,1005.75
2018-09-07T03:26:15.810Z,1005.75
2018-09-07T03:27:24.454Z,1005.74
2018-09-07T03:28:33.368Z,1005.71
2018-09-07T03:29:42.007Z,1005.7
2018-09-07T03:30:50.654Z,1005.65
2018-09-07T03:31:59.577Z,1005.66
2018-09-07T03:33:08.241Z,1005.63
2018-09-07T03:34:16.885Z,1005.65
2018-09-07T03:35:25.535Z,1005.62
2018-09-07T03:36:34.175Z,1005.61
2018-09-07T03:37:42.820Z,1005.59
2018-09-07T03:38:51.474Z,1005.58
2018-09-07T03:40:00.381Z,1005.55
2018-09-07T03:41:09.301Z,1005.61
2018-09-07T03:42:17.946Z,1005.61
2018-09-07T03:43:26.928Z,1005.61
2018-09-07T03:44:35.581Z,1005.6
2018-09-07T03:45:44.226Z,1005.6
2018-09-07T03:46:52.866Z,1005.61
2018-09-07T03:48:01.516Z,1005.59
2018-09-07T03:49:10.159Z,1005.59
2018-09-07T03:50:19.074Z,1005.6
2018-09-07T03:51:27.715Z,1005.55
2018-09-07T03:52:36.626Z,1005.57
2018-09-07T03:53:45.279Z,1005.59
2018-09-07T03:54:54.464Z,1005.58
2018-09-07T03:56:03.111Z,1005.57
2018-09-07T03:57:11.747Z,1005.57
2018-09-07T03:58:20.399Z,1005.58
2018-09-07T03:59:30.051Z,1005.61
2018-09-07T04:00:38.972Z,1005.64
2018-09-07T04:01:47.868Z,1005.64
2018-09-07T04:02:56.518Z,1005.66
2018-09-07T04:04:05.160Z,1005.63
2018-09-07T04:05:13.814Z,1005.63
2018-09-07T04:06:22.452Z,1005.63
2018-09-07T04:07:31.099Z,1005.62
2018-09-07T04:08:39.748Z,1005.63
2018-09-07T04:09:48.401Z,1005.64
2018-09-07T04:10:57.048Z,1005.69
2018-09-07T04:12:05.682Z,1005.72
2018-09-07T04:13:14.645Z,1005.68
2018-09-07T04:14:23.558Z,1005.68
2018-09-07T04:15:32.490Z,1005.67
2018-09-07T04:16:41.127Z,1005.66
2018-09-07T04:17:50.040Z,1005.65
2018-09-07T04:18:58.675Z,1005.66
2018-09-07T04:20:07.330Z,1005.66
2018-09-07T04:21:16.243Z,1005.68
2018-09-07T04:22:24.897Z,1005.68
2018-09-07T04:23:33.811Z,1005.67
2018-09-07T04:24:42.468Z,1005.69
2018-09-07T04:25:51.640Z,1005.73
2018-09-07T04:27:00.550Z,1005.72
2018-09-07T04:28:09.220Z,1005.74
2018-09-07T04:29:18.137Z,1005.71
2018-09-07T04:30:26.789Z,1005.69
2018-09-07T04:31:35.436Z,1005.69
2018-09-07T04:32:44.081Z,1005.67
2018-09-07T04:33:52.716Z,1005.67
2018-09-07T04:35:01.368Z,1005.69
2018-09-07T04:36:10.267Z,1005.69
2018-09-07T04:37:19.186Z,1005.67
2018-09-07T04:38:27.821Z,1005.71
2018-09-07T04:39:36.465Z,1005.75
2018-09-07T04:40:45.106Z,1005.72
2018-09-07T04:41:53.760Z,1005.74
2018-09-07T04:43:02.664Z,1005.75
2018-09-07T04:44:11.316Z,1005.72
2018-09-07T04:45:19.957Z,1005.75
2018-09-07T04:46:28.612Z,1005.74
2018-09-07T04:47:37.265Z,1005.73
2018-09-07T04:48:46.167Z,1005.76
2018-09-07T04:49:54.816Z,1005.77
2018-09-07T04:51:03.712Z,1005.82
2018-09-07T04:52:12.362Z,1005.81
2018-09-07T04:53:21.006Z,1005.82
2018-09-07T04:54:29.651Z,1005.83
2018-09-07T04:55:38.291Z,1005.83
2018-09-07T04:56:46.937Z,1005.84
2018-09-07T04:57:55.586Z,1005.87
2018-09-07T04:59:04.236Z,1005.87
2018-09-07T05:00:12.878Z,1005.86
2018-09-07T05:01:21.791Z,1005.9
2018-09-07T05:02:30.436Z,1005.91
2018-09-07T05:03:39.087Z,1005.9
2018-09-07T05:04:47.996Z,1005.96
2018-09-07T05:05:56.699Z,1005.93
2018-09-07T05:07:05.296Z,1006
2018-09-07T05:08:13.942Z,1005.97
2018-09-07T05:09:22.849Z,1005.96
2018-09-07T05:10:31.489Z,1005.94
2018-09-07T05:11:40.137Z,1005.94
2018-09-07T05:12:49.042Z,1005.94
2018-09-07T05:13:57.688Z,1005.97
2018-09-07T05:15:06.325Z,1005.96
2018-09-07T05:16:14.975Z,1005.95
2018-09-07T05:17:23.617Z,1006
2018-09-07T05:18:32.269Z,1005.95
2018-09-07T05:19:40.908Z,1005.96
2018-09-07T05:20:49.815Z,1005.98
2018-09-07T05:21:58.519Z,1006.01
2018-09-07T05:23:08.109Z,1006.01
2018-09-07T05:24:16.752Z,1005.98
2018-09-07T05:25:25.395Z,1005.97
2018-09-07T05:26:34.040Z,1005.97
2018-09-07T05:27:42.677Z,1005.95
2018-09-07T05:28:51.328Z,1005.97
2018-09-07T05:30:01.722Z,1005.96
2018-09-07T05:31:10.366Z,1005.97
2018-09-07T05:32:19.006Z,1005.94
2018-09-07T05:33:27.660Z,1005.98
2018-09-07T05:34:36.311Z,1006
2018-09-07T05:35:44.956Z,1006.01
2018-09-07T05:36:53.856Z,1006.01
2018-09-07T05:38:02.509Z,1006.06
2018-09-07T05:39:11.674Z,1006.05
2018-09-07T05:40:20.321Z,1005.99
2018-09-07T05:41:28.960Z,1006.01
2018-09-07T05:42:37.607Z,1005.99
2018-09-07T05:43:46.250Z,1006.02
2018-09-07T05:44:54.897Z,1006.01
2018-09-07T05:46:03.542Z,1006.01
2018-09-07T05:47:12.185Z,1006.05
2018-09-07T05:48:21.094Z,1006.04
2018-09-07T05:49:29.736Z,1006.02
2018-09-07T05:50:38.390Z,1006.02
2018-09-07T05:51:47.024Z,1006.03
2018-09-07T05:52:55.673Z,1006.03
2018-09-07T05:54:04.315Z,1006.03
2018-09-07T05:55:12.970Z,1006.04
2018-09-07T05:56:21.605Z,1006.06
2018-09-07T05:57:30.252Z,1006.05
2018-09-07T05:58:38.892Z,1006
2018-09-07T05:59:47.812Z,1006.07
2018-09-07T06:00:56.459Z,1006.02
2018-09-07T06:02:05.101Z,1006.04
2018-09-07T06:03:13.740Z,1006.01
2018-09-07T06:04:22.382Z,1006.01
2018-09-07T06:05:31.041Z,1006.04
2018-09-07T06:06:39.686Z,1006.05
2018-09-07T06:07:48.335Z,1006.06
2018-09-07T06:08:57.242Z,1006.07
2018-09-07T06:10:05.896Z,1006.07
2018-09-07T06:11:14.537Z,1006.07
2018-09-07T06:12:23.186Z,1006.09
2018-09-07T06:13:32.100Z,1006.08
2018-09-07T06:14:40.754Z,1006.1
2018-09-07T06:15:49.398Z,1006.1
2018-09-07T06:16:58.393Z,1006.12
2018-09-07T06:18:07.286Z,1006.13
2018-09-07T06:19:16.196Z,1006.15
2018-09-07T06:20:25.120Z,1006.11
2018-09-07T06:21:34.026Z,1006.12
2018-09-07T06:22:42.746Z,1006.16
2018-09-07T06:23:51.312Z,1006.15
2018-09-07T06:24:59.962Z,1006.15
2018-09-07T06:26:08.866Z,1006.12
2018-09-07T06:27:17.520Z,1006.15
2018-09-07T06:28:26.161Z,1006.12
2018-09-07T06:29:34.806Z,1006.13
2018-09-07T06:30:43.443Z,1006.15
2018-09-07T06:31:52.367Z,1006.14
2018-09-07T06:33:01.349Z,1006.1
2018-09-07T06:34:09.917Z,1006.11
2018-09-07T06:35:18.563Z,1006.13
2018-09-07T06:36:27.216Z,1006.08
2018-09-07T06:37:35.862Z,1006.11
2018-09-07T06:38:44.516Z,1006.11
2018-09-07T06:39:53.145Z,1006.11
2018-09-07T06:41:01.788Z,1006.12
2018-09-07T06:42:10.445Z,1006.07
2018-09-07T06:43:19.084Z,1006.11
2018-09-07T06:44:27.999Z,1006.12
2018-09-07T06:45:37.441Z,1006.12
2018-09-07T06:46:46.128Z,1006.17
2018-09-07T06:47:54.743Z,1006.16
2018-09-07T06:49:03.643Z,1006.11
2018-09-07T06:50:12.562Z,1006.13
2018-09-07T06:51:21.197Z,1006.11
2018-09-07T06:52:29.845Z,1006.14
2018-09-07T06:53:38.488Z,1006.19
2018-09-07T06:54:47.148Z,1006.17
2018-09-07T06:55:55.784Z,1006.17
2018-09-07T06:57:04.512Z,1006.19
2018-09-07T06:58:13.157Z,1006.23
2018-09-07T06:59:21.799Z,1006.27
2018-09-07T07:00:30.450Z,1006.23
2018-09-07T07:01:39.350Z,1006.2
2018-09-07T07:02:48.036Z,1006.24
2018-09-07T07:03:57.292Z,1006.22
2018-09-07T07:05:05.946Z,1006.2
2018-09-07T07:06:14.854Z,1006.2
2018-09-07T07:07:23.505Z,1006.23
2018-09-07T07:08:32.237Z,1006.22
2018-09-07T07:09:40.793Z,1006.25
2018-09-07T07:10:49.704Z,1006.27
2018-09-07T07:11:58.613Z,1006.25
2018-09-07T07:13:07.513Z,1006.27
2018-09-07T07:14:16.161Z,1006.24
2018-09-07T07:15:24.812Z,1006.21
2018-09-07T07:16:33.462Z,1006.27
2018-09-07T07:17:42.109Z,1006.27
2018-09-07T07:18:50.744Z,1006.26
2018-09-07T07:19:59.396Z,1006.28
2018-09-07T07:21:08.037Z,1006.26
2018-09-07T07:22:16.692Z,1006.27
2018-09-07T07:23:25.329Z,1006.33
2018-09-07T07:24:33.979Z,1006.34
2018-09-07T07:25:42.617Z,1006.37
2018-09-07T07:26:51.269Z,1006.35
2018-09-07T07:27:59.909Z,1006.37
2018-09-07T07:29:08.623Z,1006.34
2018-09-07T07:30:17.567Z,1006.35
2018-09-07T07:31:26.492Z,1006.34
2018-09-07T07:32:35.397Z,1006.37
2018-09-07T07:33:44.037Z,1006.32
2018-09-07T07:34:52.683Z,1006.3
2018-09-07T07:36:01.327Z,1006.32
2018-09-07T07:37:10.039Z,1006.34
2018-09-07T07:38:19.011Z,1006.36
2018-09-07T07:39:27.657Z,1006.35
2018-09-07T07:40:36.555Z,1006.35
2018-09-07T07:41:45.210Z,1006.37
2018-09-07T07:42:54.127Z,1006.34
2018-09-07T07:44:02.780Z,1006.34
2018-09-07T07:45:11.415Z,1006.37
2018-09-07T07:46:20.073Z,1006.37
2018-09-07T07:47:28.715Z,1006.31
2018-09-07T07:48:37.362Z,1006.31
2018-09-07T07:49:46.003Z,1006.36
2018-09-07T07:50:54.650Z,1006.32
2018-09-07T07:52:03.295Z,1006.29
2018-09-07T07:53:11.945Z,1006.28
2018-09-07T07:54:20.592Z,1006.33
2018-09-07T07:55:29.230Z,1006.36
2018-09-07T07:56:37.883Z,1006.34
2018-09-07T07:57:46.528Z,1006.36
2018-09-07T07:58:55.178Z,1006.33
2018-09-07T08:00:03.820Z,1006.33
2018-09-07T08:01:12.466Z,1006.39
2018-09-07T08:02:21.111Z,1006.38
2018-09-07T08:03:29.762Z,1006.35
2018-09-07T08:04:38.415Z,1006.37
2018-09-07T08:05:47.060Z,1006.35
2018-09-07T08:06:55.701Z,1006.38
2018-09-07T08:08:04.619Z,1006.34
2018-09-07T08:09:13.266Z,1006.34
2018-09-07T08:10:21.913Z,1006.35
2018-09-07T08:11:30.552Z,1006.3
2018-09-07T08:12:39.791Z,1006.41
2018-09-07T08:13:48.444Z,1006.39
2018-09-07T08:14:57.097Z,1006.4
2018-09-07T08:16:05.851Z,1006.39
2018-09-07T08:17:15.433Z,1006.36
2018-09-07T08:18:24.783Z,1006.38
2018-09-07T08:19:34.325Z,1006.42
2018-09-07T08:20:43.122Z,1006.38
2018-09-07T08:21:51.742Z,1006.42
2018-09-07T08:23:00.396Z,1006.43
2018-09-07T08:24:09.039Z,1006.42
2018-09-07T08:25:17.690Z,1006.43
2018-09-07T08:26:26.602Z,1006.4
2018-09-07T08:27:35.533Z,1006.43
2018-09-07T08:28:44.181Z,1006.44
2018-09-07T08:29:53.376Z,1006.44
2018-09-07T08:31:02.022Z,1006.45
2018-09-07T08:32:10.976Z,1006.4
2018-09-07T08:33:19.575Z,1006.44
2018-09-07T08:34:28.231Z,1006.44
2018-09-07T08:35:36.884Z,1006.43
2018-09-07T08:36:45.527Z,1006.43
2018-09-07T08:37:54.171Z,1006.43
2018-09-07T08:39:02.818Z,1006.41
2018-09-07T08:40:11.780Z,1006.41
2018-09-07T08:41:20.374Z,1006.4
2018-09-07T08:42:29.300Z,1006.41
2018-09-07T08:43:37.945Z,1006.41
2018-09-07T08:44:46.585Z,1006.43
2018-09-07T08:45:55.225Z,1006.4
2018-09-07T08:47:03.879Z,1006.44
2018-09-07T08:48:12.528Z,1006.46
2018-09-07T08:49:21.182Z,1006.42
2018-09-07T08:50:29.815Z,1006.39
2018-09-07T08:51:38.468Z,1006.44
2018-09-07T08:52:47.111Z,1006.35
2018-09-07T08:53:55.766Z,1006.42
2018-09-07T08:55:04.496Z,1006.4
2018-09-07T08:56:13.058Z,1006.42
2018-09-07T08:57:21.697Z,1006.44
2018-09-07T08:58:30.353Z,1006.42
2018-09-07T08:59:38.992Z,1006.43
2018-09-07T09:00:47.648Z,1006.42
2018-09-07T09:01:56.288Z,1006.48
2018-09-07T09:03:04.942Z,1006.42
2018-09-07T09:04:14.116Z,1006.42
2018-09-07T09:05:23.017Z,1006.45
2018-09-07T09:06:31.664Z,1006.43
2018-09-07T09:07:40.311Z,1006.45
2018-09-07T09:08:48.973Z,1006.45
2018-09-07T09:09:57.612Z,1006.39
2018-09-07T09:11:06.265Z,1006.42
2018-09-07T09:12:15.162Z,1006.42
2018-09-07T09:13:23.821Z,1006.44
2018-09-07T09:14:32.462Z,1006.42
2018-09-07T09:15:41.113Z,1006.48
2018-09-07T09:16:49.753Z,1006.46
2018-09-07T09:17:58.409Z,1006.47
2018-09-07T09:19:07.320Z,1006.44
2018-09-07T09:20:16.234Z,1006.48
2018-09-07T09:21:24.870Z,1006.5
2018-09-07T09:22:33.517Z,1006.43
2018-09-07T09:23:42.579Z,1006.45
2018-09-07T09:24:51.081Z,1006.5
2018-09-07T09:25:59.729Z,1006.46
2018-09-07T09:27:08.365Z,1006.49
2018-09-07T09:28:17.020Z,1006.45
2018-09-07T09:29:25.918Z,1006.41
2018-09-07T09:30:34.577Z,1006.4
2018-09-07T09:31:43.218Z,1006.45
2018-09-07T09:32:51.908Z,1006.45
2018-09-07T09:34:00.510Z,1006.47
2018-09-07T09:35:09.164Z,1006.44
2018-09-07T09:36:18.187Z,1006.45
2018-09-07T09:37:26.854Z,1006.46
2018-09-07T09:38:35.765Z,1006.48
2018-09-07T09:39:44.803Z,1006.52
2018-09-07T09:40:53.445Z,1006.55
2018-09-07T09:42:02.280Z,1006.59
2018-09-07T09:43:10.924Z,1006.59
2018-09-07T09:44:19.575Z,1006.64
2018-09-07T09:45:28.485Z,1006.62
2018-09-07T09:46:37.130Z,1006.67
2018-09-07T09:47:46.039Z,1006.63
2018-09-07T09:48:54.679Z,1006.7
2018-09-07T09:50:03.331Z,1006.67
2018-09-07T09:51:12.240Z,1006.66
2018-09-07T09:52:21.160Z,1006.72
2018-09-07T09:53:29.799Z,1006.72
2018-09-07T09:54:38.451Z,1006.69
2018-09-07T09:55:47.098Z,1006.66
2018-09-07T09:56:55.778Z,1006.69
2018-09-07T09:58:04.386Z,1006.75
2018-09-07T09:59:13.394Z,1006.74
2018-09-07T10:00:22.028Z,1006.74
2018-09-07T10:01:30.730Z,1006.78
2018-09-07T10:02:39.783Z,1006.74
2018-09-07T10:03:48.286Z,1006.76
2018-09-07T10:04:56.934Z,1006.75
2018-09-07T10:06:05.640Z,1006.74
2018-09-07T10:07:14.290Z,1006.7
2018-09-07T10:08:22.950Z,1006.8
2018-09-07T10:09:31.600Z,1006.8
2018-09-07T10:10:40.386Z,1006.82
2018-09-07T10:11:49.038Z,1006.8
2018-09-07T10:12:57.681Z,1006.82
2018-09-07T10:14:06.388Z,1006.84
2018-09-07T10:15:15.057Z,1006.81
2018-09-07T10:16:23.735Z,1006.86
2018-09-07T10:17:32.647Z,1006.81
2018-09-07T10:18:41.293Z,1006.8
2018-09-07T10:19:49.935Z,1006.84
2018-09-07T10:20:58.579Z,1006.87
2018-09-07T10:22:07.227Z,1006.85
2018-09-07T10:23:15.874Z,1006.87
2018-09-07T10:24:24.519Z,1006.88
2018-09-07T10:25:33.242Z,1006.89
2018-09-07T10:26:41.808Z,1006.96
2018-09-07T10:27:50.711Z,1006.93
2018-09-07T10:28:59.360Z,1006.93
2018-09-07T10:30:07.993Z,1006.95
2018-09-07T10:31:16.645Z,1006.98
2018-09-07T10:32:25.287Z,1006.96
2018-09-07T10:33:33.941Z,1006.98
2018-09-07T10:34:42.842Z,1006.98
2018-09-07T10:35:51.490Z,1007.02
2018-09-07T10:37:00.136Z,1007.03
2018-09-07T10:38:09.048Z,1006.95
2018-09-07T10:39:17.700Z,1007
2018-09-07T10:40:26.342Z,1007.1
2018-09-07T10:41:34.992Z,1006.95
2018-09-07T10:42:43.640Z,1007.01
2018-09-07T10:43:52.281Z,1006.99
2018-09-07T10:45:00.936Z,1007.02
2018-09-07T10:46:09.581Z,1007.04
2018-09-07T10:47:18.225Z,1007.07
2018-09-07T10:48:27.128Z,1007.03
2018-09-07T10:49:35.784Z,1007.05
2018-09-07T10:50:45.411Z,1007.04
2018-09-07T10:51:54.062Z,1007.07
2018-09-07T10:53:03.078Z,1007.08
2018-09-07T10:54:11.989Z,1007.13
2018-09-07T10:55:20.635Z,1007.11
2018-09-07T10:56:29.286Z,1007.16
2018-09-07T10:57:37.935Z,1007.11
2018-09-07T10:58:46.581Z,1007.24
2018-09-07T10:59:55.496Z,1007.1
2018-09-07T11:01:04.145Z,1007.15
2018-09-07T11:02:13.078Z,1007.16
2018-09-07T11:03:21.975Z,1007.22
2018-09-07T11:04:30.620Z,1007.19
2018-09-07T11:05:39.270Z,1007.19
2018-09-07T11:06:47.920Z,1007.19
2018-09-07T11:07:56.561Z,1007.21
2018-09-07T11:09:05.209Z,1007.3
2018-09-07T11:10:13.853Z,1007.21
2018-09-07T11:11:22.504Z,1007.26
2018-09-07T11:12:31.157Z,1007.26
2018-09-07T11:13:39.799Z,1007.27
2018-09-07T11:14:48.444Z,1007.2
2018-09-07T11:15:57.091Z,1007.28
2018-09-07T11:17:06.004Z,1007.29
2018-09-07T11:18:14.651Z,1007.29
2018-09-07T11:19:23.308Z,1007.32
2018-09-07T11:20:32.209Z,1007.29
2018-09-07T11:21:40.864Z,1007.31
2018-09-07T11:22:49.510Z,1007.37
2018-09-07T11:23:58.699Z,1007.31
2018-09-07T11:25:07.343Z,1007.34
2018-09-07T11:26:16.264Z,1007.34
2018-09-07T11:27:25.172Z,1007.33
2018-09-07T11:28:34.083Z,1007.33
2018-09-07T11:29:42.725Z,1007.39
2018-09-07T11:30:51.634Z,1007.38
2018-09-07T11:32:00.282Z,1007.42
2018-09-07T11:33:08.930Z,1007.48
2018-09-07T11:34:17.837Z,1007.51
2018-09-07T11:35:26.534Z,1007.46
2018-09-07T11:36:35.478Z,1007.42
2018-09-07T11:37:44.125Z,1007.45
2018-09-07T11:38:52.780Z,1007.45
2018-09-07T11:40:01.422Z,1007.34
2018-09-07T11:41:10.119Z,1007.39
2018-09-07T11:42:18.710Z,1007.34
2018-09-07T11:43:27.369Z,1007.46
2018-09-07T11:44:36.005Z,1007.4
2018-09-07T11:45:44.920Z,1007.44
2018-09-07T11:46:53.565Z,1007.45
2018-09-07T11:48:02.221Z,1007.49
2018-09-07T11:49:10.909Z,1007.42
2018-09-07T11:50:19.512Z,1007.45
2018-09-07T11:51:28.151Z,1007.43
2018-09-07T11:52:36.797Z,1007.6
2018-09-07T11:53:45.453Z,1007.38
2018-09-07T11:54:56.249Z,1007.54
2018-09-07T11:56:05.434Z,1007.53
2018-09-07T11:57:14.072Z,1007.52
2018-09-07T11:58:22.752Z,1007.5
2018-09-07T11:59:31.824Z,1007.52
2018-09-07T12:00:40.475Z,1007.57
2018-09-07T12:01:49.116Z,1007.64
2018-09-07T12:02:57.773Z,1007.6
2018-09-07T12:04:06.470Z,1007.57
2018-09-07T12:05:15.426Z,1007.56
2018-09-07T12:06:24.322Z,1007.57
2018-09-07T12:07:32.971Z,1007.65
2018-09-07T12:08:41.622Z,1007.54
2018-09-07T12:09:50.273Z,1007.64
2018-09-07T12:10:58.925Z,1007.72
2018-09-07T12:12:07.566Z,1007.7
2018-09-07T12:13:16.506Z,1007.7
2018-09-07T12:14:24.860Z,1007.7
2018-09-07T12:15:33.515Z,1007.62
2018-09-07T12:16:42.171Z,1007.63
2018-09-07T12:17:50.805Z,1007.78
2018-09-07T12:18:59.457Z,1007.72
2018-09-07T12:20:08.113Z,1007.77
2018-09-07T12:21:16.886Z,1007.79
2018-09-07T12:22:25.402Z,1007.72
2018-09-07T12:23:34.115Z,1007.88
2018-09-07T12:24:42.710Z,1007.74
2018-09-07T12:25:51.354Z,1007.77
2018-09-07T12:27:00.000Z,1007.85
2018-09-07T12:28:08.695Z,1007.78
2018-09-07T12:29:17.292Z,1007.81
2018-09-07T12:30:26.486Z,1007.83
2018-09-07T12:31:35.393Z,1007.87
2018-09-07T12:32:44.315Z,1007.83
2018-09-07T12:33:52.955Z,1007.83
2018-09-07T12:35:01.614Z,1007.71
2018-09-07T12:36:10.262Z,1007.77
2018-09-07T12:37:18.909Z,1007.87
2018-09-07T12:38:27.809Z,1007.78
2018-09-07T12:39:36.729Z,1007.79
2018-09-07T12:40:45.401Z,1007.74
2018-09-07T12:41:54.436Z,1007.93
2018-09-07T12:43:04.069Z,1007.78
2018-09-07T12:44:12.720Z,1007.77
2018-09-07T12:45:21.636Z,1007.73
2018-09-07T12:46:30.286Z,1007.81
2018-09-07T12:47:39.206Z,1007.76
2018-09-07T12:48:47.850Z,1007.76
2018-09-07T12:49:56.762Z,1007.81
2018-09-07T12:51:05.412Z,1007.83
2018-09-07T12:52:14.064Z,1007.83
2018-09-07T12:53:22.706Z,1007.74
2018-09-07T12:54:31.616Z,1007.85
2018-09-07T12:55:40.270Z,1007.9
2018-09-07T12:56:49.176Z,1007.83
2018-09-07T12:57:57.818Z,1007.87
2018-09-07T12:59:06.467Z,1007.88
2018-09-07T13:00:15.109Z,1007.86
2018-09-07T13:01:23.754Z,1007.93
2018-09-07T13:02:32.445Z,1007.93
2018-09-07T13:03:41.055Z,1007.91
2018-09-07T13:04:49.715Z,1007.93
2018-09-07T13:05:58.359Z,1007.85
2018-09-07T13:07:07.010Z,1007.87
2018-09-07T13:08:15.692Z,1007.82
2018-09-07T13:09:25.102Z,1007.85
2018-09-07T13:10:33.745Z,1007.8
2018-09-07T13:11:42.659Z,1007.88
2018-09-07T13:12:51.574Z,1007.89
2018-09-07T13:14:00.221Z,1007.94
2018-09-07T13:15:08.870Z,1007.89
2018-09-07T13:16:17.522Z,1007.87
2018-09-07T13:17:26.174Z,1007.94
2018-09-07T13:18:34.817Z,1007.98
2018-09-07T13:19:43.763Z,1007.95
2018-09-07T13:20:52.377Z,1007.98
2018-09-07T13:22:01.025Z,1007.95
2018-09-07T13:23:09.677Z,1008.03
2018-09-07T13:24:18.851Z,1008
2018-09-07T13:25:27.763Z,1008.03
2018-09-07T13:26:36.673Z,1008.08
2018-09-07T13:27:45.323Z,1008.04
2018-09-07T13:28:53.982Z,1008.04
2018-09-07T13:30:02.886Z,1008.05
2018-09-07T13:31:11.533Z,1008.09
2018-09-07T13:32:20.180Z,1008.08
2018-09-07T13:33:28.834Z,1008.14
2018-09-07T13:34:37.477Z,1008.16
2018-09-07T13:35:46.128Z,1008.21
2018-09-07T13:36:54.771Z,1008.17
2018-09-07T13:38:03.426Z,1008.2
2018-09-07T13:39:12.334Z,1008.26
2018-09-07T13:40:21.240Z,1008.27
2018-09-07T13:41:29.890Z,1008.32
2018-09-07T13:42:38.533Z,1008.33
2018-09-07T13:43:47.198Z,1008.34
2018-09-07T13:44:56.120Z,1008.41
2018-09-07T13:46:05.037Z,1008.45
2018-09-07T13:47:13.937Z,1008.4
2018-09-07T13:48:23.187Z,1008.5
2018-09-07T13:49:31.773Z,1008.54
2018-09-07T13:50:40.425Z,1008.62
2018-09-07T13:51:49.064Z,1008.54
2018-09-07T13:52:57.721Z,1008.62
2018-09-07T13:54:06.369Z,1008.61